Time;durP1;ratioP1;P1;durP2;ratioP2;P2;SDS_P1;SDS_P2;PMS_P1;PMS_P2;Temp;Humidity;BMP_temperature;BMP_pressure;BME280_temperature;BME280_humidity;BME280_pressure;Samples;Min_cycle;Max_cycle;Signal;HPM_P1;HPM_P2
2023/06/10 00:01:11;;;;;;;5.93;5.43;;;;;;;20.20;80.54;94653.94;4993332;28;20209;-69
2023/06/10 00:03:38;;;;;;;8.00;5.10;;;;;;;20.13;80.73;94657.91;5005871;28;20208;-69
2023/06/10 00:06:07;;;;;;;6.53;4.88;;;;;;;20.19;80.85;94657.44;4993063;28;20200;-67
2023/06/10 00:08:33;;;;;;;5.93;5.53;;;;;;;20.11;81.19;94644.31;4993997;28;20267;-69
2023/06/10 00:11:00;;;;;;;5.70;5.20;;;;;;;20.07;81.66;94648.06;4993167;28;20680;-67
2023/06/10 00:13:27;;;;;;;6.45;5.88;;;;;;;19.97;82.16;94636.81;4992883;28;20236;-68
2023/06/10 00:15:53;;;;;;;6.40;6.00;;;;;;;19.94;82.29;94637.06;4993001;28;20237;-69
2023/06/10 00:18:22;;;;;;;6.10;5.60;;;;;;;19.92;82.55;94638.94;4993031;28;20271;-68
2023/06/10 00:20:52;;;;;;;6.10;5.55;;;;;;;20.02;81.96;94647.63;4992467;28;20227;-68
2023/06/10 00:23:20;;;;;;;6.00;5.60;;;;;;;19.79;82.89;94638.25;4993057;28;20197;-68
2023/06/10 00:25:47;;;;;;;6.32;5.82;;;;;;;19.68;83.57;94647.59;4992761;28;20209;-68
2023/06/10 00:28:14;;;;;;;8.60;5.55;;;;;;;19.65;83.90;94647.00;4992683;28;20241;-67
2023/06/10 00:30:40;;;;;;;10.02;6.25;;;;;;;19.67;83.73;94645.97;4991199;28;20255;-67
2023/06/10 00:33:07;;;;;;;5.95;5.53;;;;;;;19.68;84.04;94657.91;4993428;28;20201;-68
2023/06/10 00:35:34;;;;;;;6.32;5.72;;;;;;;19.67;83.82;94645.97;4993096;28;20264;-69
2023/06/10 00:38:00;;;;;;;5.40;5.00;;;;;;;19.57;84.53;94649.34;4992449;28;20208;-68
2023/06/10 00:40:28;;;;;;;10.32;9.50;;;;;;;19.50;84.74;94643.84;4990213;28;20275;-68
2023/06/10 00:42:55;;;;;;;21.08;18.98;;;;;;;19.48;85.08;94645.69;4991035;28;20204;-68
2023/06/10 00:45:22;;;;;;;23.95;16.73;;;;;;;19.45;85.50;94643.34;4992657;28;20650;-67
2023/06/10 00:47:49;;;;;;;15.85;14.35;;;;;;;19.59;84.67;94639.72;4991497;28;20274;-67
2023/06/10 00:50:16;;;;;;;15.02;13.77;;;;;;;19.49;85.13;94646.50;4992442;28;20200;-67
2023/06/10 00:52:44;;;;;;;13.15;10.20;;;;;;;19.58;84.92;94643.25;4992522;28;20229;-68
2023/06/10 00:55:11;;;;;;;9.77;8.60;;;;;;;19.48;85.69;94645.69;4992459;28;20664;-69
2023/06/10 00:57:39;;;;;;;10.45;8.38;;;;;;;19.40;85.74;94642.84;4992244;28;20205;-71
2023/06/10 01:00:10;;;;;;;8.82;7.97;;;;;;;19.46;85.95;94657.84;4992312;28;20683;-68
2023/06/10 01:02:37;;;;;;;8.25;7.32;;;;;;;19.52;85.58;94656.63;4992095;28;20268;-70
2023/06/10 01:05:05;;;;;;;7.07;6.43;;;;;;;19.54;85.56;94658.16;4990496;28;20742;-70
2023/06/10 01:07:38;;;;;;;7.80;6.95;;;;;;;19.46;85.87;94647.56;4990467;28;20208;-70
2023/06/10 01:10:12;;;;;;;7.63;6.78;;;;;;;19.46;86.36;94659.63;4991066;28;20749;-71
2023/06/10 01:12:48;;;;;;;7.30;6.60;;;;;;;19.45;86.35;94663.94;4990420;28;20287;-71
2023/06/10 01:15:15;;;;;;;6.72;6.13;;;;;;;19.57;85.65;94655.31;4990716;28;20675;-70
2023/06/10 01:17:57;;;;;;;9.80;6.72;;;;;;;19.61;85.67;94655.91;4990639;28;20228;-71
2023/06/10 01:20:26;;;;;;;8.85;6.53;;;;;;;19.55;85.87;94664.91;4991775;28;20232;-70
2023/06/10 01:22:55;;;;;;;6.88;6.18;;;;;;;19.52;86.56;94652.28;4992231;28;20232;-72
2023/06/10 01:25:27;;;;;;;13.45;6.70;;;;;;;19.51;87.07;94655.78;4992178;28;20296;-70
2023/06/10 01:27:59;;;;;;;9.98;6.95;;;;;;;19.60;86.79;94654.25;4991952;28;20205;-71
2023/06/10 01:30:30;;;;;;;7.60;6.82;;;;;;;19.77;86.51;94647.84;4991331;28;20737;-69
2023/06/10 01:33:00;;;;;;;12.65;7.30;;;;;;;19.73;86.55;94655.00;4991715;28;20319;-70
2023/06/10 01:35:30;;;;;;;7.57;6.50;;;;;;;19.72;86.75;94657.69;4992168;28;20360;-71
2023/06/10 01:38:01;;;;;;;7.88;7.10;;;;;;;19.66;87.24;94646.91;4991695;28;20233;-70
2023/06/10 01:40:29;;;;;;;8.88;7.32;;;;;;;19.66;87.37;94644.31;4991326;28;20233;-70
2023/06/10 01:42:55;;;;;;;7.25;6.65;;;;;;;19.65;87.40;94644.44;4991251;28;20259;-71
2023/06/10 01:45:22;;;;;;;7.28;6.75;;;;;;;19.78;87.58;94644.34;4991619;28;20655;-72
2023/06/10 01:47:49;;;;;;;7.82;7.13;;;;;;;19.61;87.70;94643.03;4991629;28;20212;-71
2023/06/10 01:50:16;;;;;;;7.80;7.05;;;;;;;19.28;89.49;94633.47;4991902;28;20553;-69
2023/06/10 01:52:43;;;;;;;8.75;6.45;;;;;;;19.33;89.23;94641.66;4991752;28;20201;-71
2023/06/10 01:55:11;;;;;;;10.02;7.45;;;;;;;19.44;89.04;94638.28;4991039;28;20205;-70
2023/06/10 01:57:37;;;;;;;8.05;6.95;;;;;;;19.51;88.42;94635.19;4991385;28;20259;-70
2023/06/10 02:00:05;;;;;;;7.35;6.80;;;;;;;19.55;88.61;94621.09;4991217;28;20253;-68
2023/06/10 02:02:32;;;;;;;7.28;6.55;;;;;;;19.60;88.01;94633.66;5003440;28;20213;-69
2023/06/10 02:04:58;;;;;;;10.10;6.63;;;;;;;19.67;87.05;94627.09;4978993;28;20649;-68
2023/06/10 02:07:25;;;;;;;12.25;6.70;;;;;;;19.59;87.00;94622.50;4991048;28;20568;-69
2023/06/10 02:09:52;;;;;;;7.82;7.13;;;;;;;19.59;87.45;94627.66;4991201;28;20201;-70
2023/06/10 02:12:20;;;;;;;7.35;6.75;;;;;;;19.54;87.68;94624.66;4990600;28;20205;-69
2023/06/10 02:14:46;;;;;;;9.05;6.53;;;;;;;19.63;86.60;94623.09;4990820;28;20687;-71
2023/06/10 02:17:14;;;;;;;6.32;5.90;;;;;;;19.63;87.30;94620.53;4990890;28;20240;-70
2023/06/10 02:19:42;;;;;;;6.55;5.85;;;;;;;19.56;87.77;94617.59;4990847;28;20228;-68
2023/06/10 02:22:09;;;;;;;6.93;6.43;;;;;;;19.53;87.91;94617.84;4990754;28;20204;-68
2023/06/10 02:24:37;;;;;;;8.32;6.63;;;;;;;19.51;87.80;94614.56;4990186;28;20579;-70
2023/06/10 02:27:06;;;;;;;8.25;6.30;;;;;;;19.54;88.08;94618.66;4990587;28;20693;-70
2023/06/10 02:29:35;;;;;;;7.05;6.22;;;;;;;19.60;87.88;94606.09;4990934;28;20597;-71
2023/06/10 02:32:02;;;;;;;6.93;6.32;;;;;;;19.59;88.01;94612.19;4990660;28;20590;-69
2023/06/10 02:34:29;;;;;;;7.35;6.72;;;;;;;19.56;88.01;94598.72;4990896;28;20243;-68
2023/06/10 02:36:56;;;;;;;7.53;6.82;;;;;;;19.64;88.07;94612.69;4990661;28;20302;-68
2023/06/10 02:39:23;;;;;;;7.05;6.35;;;;;;;19.63;88.58;94603.31;4989903;28;20205;-71
2023/06/10 02:41:49;;;;;;;7.72;6.47;;;;;;;19.63;88.75;94605.88;4986997;28;20256;-70
2023/06/10 02:44:16;;;;;;;6.68;6.10;;;;;;;19.61;88.63;94596.63;4990411;28;20232;-69
2023/06/10 02:46:44;;;;;;;7.18;6.55;;;;;;;19.57;88.73;94588.31;4991135;28;20605;-72
2023/06/10 02:49:12;;;;;;;8.27;6.38;;;;;;;19.62;88.82;94601.66;4990083;28;20201;-67
2023/06/10 02:51:39;;;;;;;7.25;6.57;;;;;;;19.66;88.77;94591.94;4988970;28;20267;-70
2023/06/10 02:54:06;;;;;;;6.93;6.22;;;;;;;19.65;88.70;94596.28;4992607;28;20212;-69
2023/06/10 02:56:33;;;;;;;7.65;7.10;;;;;;;19.70;88.77;94593.34;4993745;28;20891;-70
2023/06/10 02:59:00;;;;;;;8.15;7.35;;;;;;;19.72;88.92;94594.06;4994845;28;20295;-70
2023/06/10 03:01:26;;;;;;;7.78;7.13;;;;;;;19.69;89.16;94596.88;4992676;28;20228;-71
2023/06/10 03:03:56;;;;;;;7.82;6.95;;;;;;;19.67;89.52;94593.59;4994004;28;20236;-70
2023/06/10 03:06:24;;;;;;;9.40;7.13;;;;;;;19.64;89.81;94597.22;4993030;28;20200;-70
2023/06/10 03:08:51;;;;;;;7.93;6.50;;;;;;;19.71;90.05;94607.88;4993670;28;20607;-70
2023/06/10 03:11:19;;;;;;;7.97;7.25;;;;;;;19.74;90.30;94620.53;4993088;28;20201;-68
2023/06/10 03:13:45;;;;;;;9.00;7.32;;;;;;;19.77;90.29;94615.16;4993804;28;20288;-70
2023/06/10 03:16:13;;;;;;;7.43;6.93;;;;;;;19.77;90.51;94610.00;4994114;28;20205;-70
2023/06/10 03:18:39;;;;;;;8.20;7.55;;;;;;;19.80;90.07;94620.06;4994753;28;20292;-68
2023/06/10 03:21:08;;;;;;;9.98;7.10;;;;;;;19.86;90.14;94619.59;4994552;28;20205;-67
2023/06/10 03:23:35;;;;;;;9.27;6.82;;;;;;;19.92;89.54;94620.88;4994198;28;20209;-68
2023/06/10 03:26:02;;;;;;;8.23;7.60;;;;;;;20.01;88.89;94628.75;4994070;28;20233;-69
2023/06/10 03:28:28;;;;;;;7.50;7.00;;;;;;;20.02;88.63;94621.81;4993945;28;20209;-68
2023/06/10 03:30:55;;;;;;;7.82;7.22;;;;;;;20.13;88.14;94632.13;4993976;28;20321;-69
2023/06/10 03:33:22;;;;;;;8.15;7.43;;;;;;;20.17;87.80;94633.53;4994495;28;20217;-70
2023/06/10 03:35:48;;;;;;;8.50;7.72;;;;;;;20.19;87.83;94631.66;4993611;28;20240;-69
2023/06/10 03:38:16;;;;;;;9.10;7.55;;;;;;;20.15;87.99;94625.06;4994196;28;20236;-70
2023/06/10 03:40:43;;;;;;;8.93;7.65;;;;;;;20.11;88.22;94633.16;4993804;28;20237;-71
2023/06/10 03:43:11;;;;;;;7.68;7.18;;;;;;;20.11;88.21;94633.16;4994010;28;20267;-70
2023/06/10 03:45:38;;;;;;;7.05;6.55;;;;;;;20.02;87.91;94630.38;4994266;28;20256;-70
2023/06/10 03:48:06;;;;;;;7.90;7.30;;;;;;;20.04;87.56;94633.63;4993571;28;20209;-71
2023/06/10 03:50:32;;;;;;;8.13;6.78;;;;;;;20.07;87.29;94630.00;4993301;28;20295;-70
2023/06/10 03:52:59;;;;;;;7.13;6.43;;;;;;;20.07;86.95;94626.59;4995196;28;20380;-67
2023/06/10 03:55:27;;;;;;;7.45;6.28;;;;;;;20.04;86.82;94622.53;4993980;28;20205;-69
2023/06/10 03:57:54;;;;;;;6.82;6.25;;;;;;;20.04;86.06;94617.38;4993568;28;20213;-71
2023/06/10 04:00:22;;;;;;;8.32;7.20;;;;;;;20.05;86.57;94630.13;4993213;28;20600;-69
2023/06/10 04:02:51;;;;;;;8.60;7.38;;;;;;;20.15;85.96;94624.25;4994562;28;20650;-66
2023/06/10 04:05:21;;;;;;;7.40;6.80;;;;;;;20.08;86.31;94626.47;5000872;28;20703;-65
2023/06/10 04:07:48;;;;;;;8.30;6.70;;;;;;;20.03;86.66;94631.19;4998143;28;20201;-68
2023/06/10 04:10:15;;;;;;;7.43;6.70;;;;;;;20.01;87.01;94630.50;4998392;28;20275;-70
2023/06/10 04:12:43;;;;;;;7.03;6.63;;;;;;;20.07;86.83;94626.59;4997445;28;20197;-68
2023/06/10 04:15:10;;;;;;;7.57;6.88;;;;;;;20.07;86.64;94632.59;4996831;28;20232;-67
2023/06/10 04:17:37;;;;;;;6.97;6.13;;;;;;;20.07;87.04;94640.31;4995651;28;20687;-70
2023/06/10 04:20:07;;;;;;;9.13;7.18;;;;;;;20.09;86.81;94637.63;4993670;28;20736;-69
2023/06/10 04:22:34;;;;;;;10.35;6.78;;;;;;;20.09;86.46;94646.19;4993649;28;20263;-70
2023/06/10 04:25:00;;;;;;;6.55;6.10;;;;;;;20.22;85.68;94636.56;4993676;28;20287;-69
2023/06/10 04:27:27;;;;;;;7.32;6.75;;;;;;;20.26;85.11;94627.66;4998731;28;20205;-64
2023/06/10 04:29:55;;;;;;;7.93;6.30;;;;;;;20.27;85.24;94629.28;4999449;28;20259;-63
2023/06/10 04:32:22;;;;;;;9.18;6.07;;;;;;;20.44;85.07;94635.72;4996596;28;20600;-68
2023/06/10 04:34:48;;;;;;;6.50;6.10;;;;;;;20.46;84.48;94630.44;4994127;28;20241;-70
2023/06/10 04:37:15;;;;;;;6.30;5.90;;;;;;;20.29;85.19;94629.19;4992033;28;20639;-70
2023/06/10 04:39:42;;;;;;;7.55;6.85;;;;;;;20.24;85.52;94633.88;4992702;28;20300;-69
2023/06/10 04:42:09;;;;;;;5.97;5.57;;;;;;;20.21;85.74;94644.44;4990571;28;20729;-71
2023/06/10 04:44:35;;;;;;;6.20;5.78;;;;;;;20.17;85.44;94636.09;4992230;28;20213;-69
2023/06/10 04:47:04;;;;;;;6.30;5.68;;;;;;;20.27;85.01;94636.22;4991823;28;20259;-68
2023/06/10 04:49:31;;;;;;;6.10;5.60;;;;;;;20.38;84.45;94631.88;4991818;28;20209;-69
2023/06/10 04:51:57;;;;;;;9.35;6.90;;;;;;;20.55;83.94;94640.03;4993349;28;20244;-68
2023/06/10 04:54:24;;;;;;;9.73;7.30;;;;;;;20.71;83.28;94635.31;4992141;28;20702;-69
2023/06/10 04:56:51;;;;;;;6.93;6.40;;;;;;;20.79;83.49;94640.66;4993065;28;20209;-70
2023/06/10 04:59:17;;;;;;;6.53;5.93;;;;;;;20.97;82.75;94628.84;4992208;28;20232;-69
2023/06/10 05:01:44;;;;;;;7.72;7.03;;;;;;;21.02;82.45;94634.47;4980290;28;20726;-70
2023/06/10 05:04:12;;;;;;;7.75;7.22;;;;;;;20.81;82.76;94631.03;4990502;28;20247;-71
2023/06/10 05:06:39;;;;;;;8.27;7.43;;;;;;;20.66;83.35;94624.50;4990877;28;20240;-70
2023/06/10 05:09:05;;;;;;;7.90;7.30;;;;;;;20.71;83.66;94636.13;4990343;28;20390;-69
2023/06/10 05:11:32;;;;;;;6.70;6.03;;;;;;;20.77;83.63;94632.22;4990223;28;20275;-69
2023/06/10 05:13:59;;;;;;;7.50;6.93;;;;;;;20.83;83.26;94631.72;4990257;28;20299;-68
2023/06/10 05:16:25;;;;;;;7.57;7.00;;;;;;;20.87;81.95;94633.13;4989798;28;20275;-66
2023/06/10 05:18:52;;;;;;;6.93;6.32;;;;;;;20.86;81.81;94641.81;4991331;28;20714;-68
2023/06/10 05:21:20;;;;;;;15.15;12.43;;;;;;;20.75;81.99;94639.28;4992403;28;20249;-67
2023/06/10 05:23:47;;;;;;;7.75;7.10;;;;;;;20.73;82.12;94637.75;4991436;28;20300;-70
2023/06/10 05:26:13;;;;;;;8.52;7.80;;;;;;;20.78;82.15;94639.03;4992114;28;20676;-68
2023/06/10 05:28:40;;;;;;;7.63;6.78;;;;;;;20.89;82.48;94635.56;4991493;28;20271;-69
2023/06/10 05:31:07;;;;;;;8.02;7.43;;;;;;;21.03;81.55;94643.03;4992172;28;20205;-66
2023/06/10 05:33:34;;;;;;;7.15;6.30;;;;;;;21.20;80.95;94646.84;4991622;28;20197;-67
2023/06/10 05:36:00;;;;;;;6.65;6.20;;;;;;;21.26;80.83;94638.63;4991863;28;20213;-67
2023/06/10 05:38:28;;;;;;;6.53;5.90;;;;;;;21.36;80.68;94635.13;4991872;28;20232;-69
2023/06/10 05:40:56;;;;;;;37.45;27.67;;;;;;;21.48;80.50;94643.66;4991479;28;20228;-70
2023/06/10 05:43:23;;;;;;;32.75;24.42;;;;;;;21.59;79.95;94635.81;4991868;28;20259;-69
2023/06/10 05:45:50;;;;;;;12.85;11.63;;;;;;;21.86;77.98;94634.44;4991392;28;20264;-68
2023/06/10 05:48:16;;;;;;;11.02;8.75;;;;;;;22.19;76.22;94639.34;4991445;28;20232;-68
2023/06/10 05:50:47;;;;;;;21.65;17.05;;;;;;;22.51;75.04;94643.53;4991862;28;20597;-67
2023/06/10 05:53:15;;;;;;;21.38;18.08;;;;;;;22.81;74.09;94640.84;4991599;28;20204;-67
2023/06/10 05:55:44;;;;;;;11.32;9.80;;;;;;;23.02;73.76;94641.53;4995420;28;20300;-64
2023/06/10 05:58:12;;;;;;;7.15;6.65;;;;;;;23.24;73.01;94637.88;4977486;28;20205;-68
2023/06/10 06:00:40;;;;;;;11.38;10.18;;;;;;;23.50;71.61;94648.47;4995048;28;20205;-69
2023/06/10 06:03:08;;;;;;;10.18;9.15;;;;;;;23.67;71.02;94652.13;5008003;28;20205;-65
2023/06/10 06:05:37;;;;;;;19.98;15.43;;;;;;;23.82;70.04;94652.50;4994898;28;20215;-68
2023/06/10 06:08:04;;;;;;;20.40;17.05;;;;;;;23.84;69.65;94645.38;4992452;28;20288;-70
2023/06/10 06:10:31;;;;;;;17.73;13.73;;;;;;;23.81;70.17;94645.66;4991764;28;20612;-71
2023/06/10 06:12:59;;;;;;;9.32;8.43;;;;;;;23.94;69.22;94643.59;4990813;28;20671;-70
2023/06/10 06:15:25;;;;;;;8.77;8.13;;;;;;;24.12;68.99;94644.47;4989826;28;20237;-68
2023/06/10 06:17:53;;;;;;;9.55;8.75;;;;;;;24.29;68.16;94648.91;4990939;28;20559;-69
2023/06/10 06:20:19;;;;;;;18.75;12.18;;;;;;;24.56;67.77;94655.06;4991611;28;20209;-69
2023/06/10 06:22:46;;;;;;;11.88;10.65;;;;;;;24.79;66.63;94652.84;4990988;28;20252;-71
2023/06/10 06:25:13;;;;;;;15.38;8.60;;;;;;;24.84;66.51;94651.47;4990520;28;20816;-66
2023/06/10 06:27:40;;;;;;;7.18;6.50;;;;;;;24.86;65.91;94659.09;4990006;28;20745;-69
2023/06/10 06:30:09;;;;;;;14.98;6.28;;;;;;;24.74;66.35;94645.53;4990181;28;20240;-71
2023/06/10 06:32:36;;;;;;;9.23;6.82;;;;;;;24.81;65.86;94658.72;4991048;28;20733;-70
2023/06/10 06:35:03;;;;;;;6.18;5.55;;;;;;;24.93;65.14;94660.97;4990366;28;20205;-70
2023/06/10 06:37:29;;;;;;;6.22;5.72;;;;;;;25.01;64.37;94652.44;4990919;28;20209;-68
2023/06/10 06:39:56;;;;;;;5.97;5.47;;;;;;;25.09;64.31;94655.94;4990197;28;20201;-67
2023/06/10 06:42:23;;;;;;;6.25;5.68;;;;;;;25.19;62.81;94650.69;4989040;28;20259;-69
2023/06/10 06:44:49;;;;;;;6.10;5.53;;;;;;;25.06;63.44;94655.44;4989411;28;20212;-65
2023/06/10 06:47:19;;;;;;;6.90;5.45;;;;;;;24.91;63.95;94649.91;4990299;28;20201;-68
2023/06/10 06:49:46;;;;;;;11.52;5.15;;;;;;;24.77;64.49;94650.41;4989624;28;20213;-71
2023/06/10 06:52:13;;;;;;;8.57;4.80;;;;;;;24.73;64.50;94638.69;4990404;28;20275;-68
2023/06/10 06:54:40;;;;;;;5.32;4.90;;;;;;;24.71;64.81;94638.03;4990536;28;20259;-70
2023/06/10 06:57:07;;;;;;;5.88;4.93;;;;;;;24.65;65.54;94639.44;4986984;28;20699;-69
2023/06/10 06:59:33;;;;;;;6.68;5.13;;;;;;;24.74;65.00;94640.34;4989662;28;20233;-71
2023/06/10 07:02:00;;;;;;;15.55;13.13;;;;;;;24.94;63.70;94641.81;4988222;28;20248;-69
2023/06/10 07:04:28;;;;;;;26.98;20.10;;;;;;;25.05;64.23;94631.22;4988259;28;20201;-70
2023/06/10 07:06:55;;;;;;;23.77;15.73;;;;;;;25.43;62.73;94627.47;4988312;28;20201;-69
2023/06/10 07:09:22;;;;;;;8.70;7.90;;;;;;;25.83;61.71;94639.13;4988412;28;20263;-67
2023/06/10 07:11:48;;;;;;;7.78;5.50;;;;;;;26.32;60.32;94629.78;4988521;28;20765;-70
2023/06/10 07:14:15;;;;;;;8.13;5.72;;;;;;;27.01;58.04;94626.03;4975734;28;20287;-69
2023/06/10 07:16:42;;;;;;;7.53;5.88;;;;;;;28.18;54.61;94630.00;4980998;28;20298;-67
2023/06/10 07:19:09;;;;;;;8.68;5.60;;;;;;;30.13;49.27;94613.75;4990228;28;20201;-69
2023/06/10 07:21:37;;;;;;;9.27;4.97;;;;;;;32.17;43.21;94601.75;4989652;28;20260;-67
2023/06/10 07:24:04;;;;;;;5.00;4.57;;;;;;;34.29;38.43;94606.31;4989878;28;20209;-67
2023/06/10 07:26:31;;;;;;;4.50;4.13;;;;;;;35.28;34.12;94605.03;4990562;28;20217;-71
2023/06/10 07:28:58;;;;;;;4.95;4.00;;;;;;;35.17;33.91;94603.06;4989742;28;20205;-70
2023/06/10 07:31:25;;;;;;;4.05;3.78;;;;;;;35.95;32.53;94609.56;4990174;28;20646;-69
2023/06/10 07:33:52;;;;;;;5.45;4.00;;;;;;;37.14;30.88;94605.53;4989994;28;20204;-67
2023/06/10 07:36:18;;;;;;;4.80;3.85;;;;;;;38.39;27.82;94602.63;4990264;28;20209;-71
2023/06/10 07:38:46;;;;;;;5.03;3.75;;;;;;;38.40;28.63;94605.06;4990106;28;20209;-70
2023/06/10 07:41:14;;;;;;;4.47;4.07;;;;;;;38.88;28.11;94603.91;4992727;28;20268;-69
2023/06/10 07:43:40;;;;;;;6.10;3.53;;;;;;;40.00;26.34;94597.84;4993834;28;20233;-70
2023/06/10 07:46:07;;;;;;;4.28;4.07;;;;;;;40.39;25.49;94596.78;4993668;28;20209;-71
2023/06/10 07:48:34;;;;;;;5.22;4.55;;;;;;;41.98;23.62;94597.28;4993635;28;20245;-70
2023/06/10 07:51:00;;;;;;;7.72;6.53;;;;;;;44.63;21.47;94585.91;4992968;28;20221;-69
2023/06/10 07:53:27;;;;;;;9.07;8.18;;;;;;;46.39;19.82;94593.72;4992912;28;20205;-71
2023/06/10 07:55:55;;;;;;;9.52;8.68;;;;;;;47.57;18.63;94595.66;4996756;28;20212;-69
2023/06/10 07:58:22;;;;;;;7.78;3.97;;;;;;;48.78;16.36;94587.22;4990391;28;20204;-70
2023/06/10 08:00:49;;;;;;;5.97;3.85;;;;;;;49.41;16.02;94591.00;4992641;28;20283;-70
2023/06/10 08:03:15;;;;;;;5.57;3.63;;;;;;;49.22;16.15;94586.59;4991849;28;20221;-68
2023/06/10 08:05:42;;;;;;;4.88;4.25;;;;;;;47.83;16.96;94582.56;4993602;28;20295;-70
2023/06/10 08:08:09;;;;;;;7.63;4.20;;;;;;;46.65;17.91;94582.66;4993125;28;20236;-71
2023/06/10 08:10:36;;;;;;;6.28;3.65;;;;;;;45.25;18.95;94573.78;4992617;28;20208;-70
2023/06/10 08:13:04;;;;;;;5.28;3.67;;;;;;;46.13;18.79;94578.13;4993129;28;20255;-68
2023/06/10 08:15:31;;;;;;;4.00;3.80;;;;;;;46.50;18.79;94580.16;4992810;28;20251;-70
2023/06/10 08:17:57;;;;;;;4.47;4.07;;;;;;;46.91;18.05;94575.88;4993109;28;20205;-69
2023/06/10 08:20:24;;;;;;;9.68;6.30;;;;;;;47.79;17.23;94571.59;4992569;28;20251;-69
2023/06/10 08:22:51;;;;;;;6.35;5.85;;;;;;;48.23;16.67;94560.31;4992939;28;20753;-70
2023/06/10 08:25:18;;;;;;;5.13;4.32;;;;;;;49.08;16.07;94568.78;4992413;28;20228;-71
2023/06/10 08:27:44;;;;;;;4.95;4.55;;;;;;;49.73;15.26;94566.47;4993343;28;20205;-70
2023/06/10 08:30:13;;;;;;;4.20;4.00;;;;;;;49.95;15.63;94565.66;4992390;28;20764;-71
2023/06/10 08:32:39;;;;;;;12.15;11.15;;;;;;;49.70;15.24;94559.78;4992871;28;20698;-70
2023/06/10 08:35:06;;;;;;;3.90;3.60;;;;;;;49.56;15.42;94559.03;4993451;28;20278;-70
2023/06/10 08:37:33;;;;;;;3.85;3.65;;;;;;;49.74;15.25;94562.66;4993017;28;20207;-71
2023/06/10 08:40:01;;;;;;;3.70;3.50;;;;;;;49.87;15.21;94552.84;4991225;28;20662;-71
2023/06/10 08:42:35;;;;;;;4.13;3.83;;;;;;;49.46;15.76;94556.56;4988934;28;20220;-71
2023/06/10 08:45:03;;;;;;;3.40;3.10;;;;;;;49.45;15.28;94562.28;4990172;28;20207;-71
2023/06/10 08:47:32;;;;;;;2.92;2.83;;;;;;;47.32;16.80;94545.69;4991556;28;20286;-71
2023/06/10 08:50:04;;;;;;;3.10;2.90;;;;;;;44.30;19.16;94539.13;4991389;28;20210;-73
2023/06/10 08:52:38;;;;;;;3.28;3.08;;;;;;;44.25;18.99;94550.69;4991597;28;20227;-71
2023/06/10 08:55:11;;;;;;;3.50;3.30;;;;;;;44.86;18.16;94550.41;4979959;28;20817;-71
2023/06/10 08:57:38;;;;;;;2.60;2.50;;;;;;;45.49;17.77;94547.03;4992462;28;20236;-70
2023/06/10 09:00:06;;;;;;;3.08;2.20;;;;;;;46.00;16.36;94539.34;4992547;28;20200;-71
2023/06/10 09:02:36;;;;;;;2.78;2.67;;;;;;;46.08;16.69;94536.00;4997033;28;20244;-69
2023/06/10 09:05:03;;;;;;;2.83;2.70;;;;;;;47.17;16.62;94537.88;4999186;28;20207;-69
2023/06/10 09:07:34;;;;;;;5.57;3.05;;;;;;;47.60;16.46;94536.63;4996686;28;20212;-68
2023/06/10 09:10:02;;;;;;;3.40;2.97;;;;;;;44.40;18.89;94534.56;4996120;28;20323;-69
2023/06/10 09:12:29;;;;;;;3.50;3.20;;;;;;;42.44;20.61;94534.28;4992805;28;20205;-67
2023/06/10 09:14:56;;;;;;;3.00;2.75;;;;;;;43.42;19.74;94524.28;4992707;28;20680;-68
2023/06/10 09:17:23;;;;;;;3.13;3.03;;;;;;;43.36;20.00;94528.03;4992232;28;20280;-68
2023/06/10 09:19:53;;;;;;;3.38;3.17;;;;;;;43.08;20.01;94526.66;4991685;28;20229;-71
2023/06/10 09:22:20;;;;;;;4.28;3.28;;;;;;;42.66;20.14;94520.69;4991706;28;20235;-69
2023/06/10 09:24:47;;;;;;;4.78;2.80;;;;;;;42.74;20.84;94518.31;4993179;28;20683;-69
2023/06/10 09:27:14;;;;;;;4.20;3.03;;;;;;;43.35;19.70;94520.28;4996116;28;20201;-65
2023/06/10 09:29:48;;;;;;;3.53;3.25;;;;;;;40.57;22.57;94518.44;4997914;28;20703;-67
2023/06/10 09:32:18;;;;;;;3.33;3.13;;;;;;;38.95;22.96;94527.50;4996155;28;20224;-68
2023/06/10 09:34:45;;;;;;;3.15;2.85;;;;;;;38.73;24.60;94515.97;4993754;28;20624;-70
2023/06/10 09:37:14;;;;;;;2.58;2.47;;;;;;;38.80;24.62;94519.28;4991043;28;20193;-68
2023/06/10 09:39:41;;;;;;;4.15;3.08;;;;;;;38.43;25.19;94516.19;4991748;28;20205;-67
2023/06/10 09:42:18;;;;;;;3.63;3.03;;;;;;;37.37;24.80;94518.13;4988185;28;21333;-70
2023/06/10 09:44:51;;;;;;;4.25;3.30;;;;;;;35.45;27.16;94511.00;4992112;28;20209;-69
2023/06/10 09:47:22;;;;;;;3.88;2.97;;;;;;;32.79;32.24;94513.97;4991701;28;20209;-71
2023/06/10 09:49:48;;;;;;;4.15;3.72;;;;;;;31.19;34.88;94518.63;4991287;28;20224;-70
2023/06/10 09:52:22;;;;;;;4.25;3.03;;;;;;;30.70;37.19;94502.84;4991305;28;20221;-70
2023/06/10 09:54:49;;;;;;;3.63;3.30;;;;;;;30.78;37.34;94507.97;4991222;28;20209;-70
2023/06/10 09:57:17;;;;;;;3.05;2.85;;;;;;;31.01;36.09;94510.41;4991272;28;20659;-71
2023/06/10 09:59:45;;;;;;;3.05;2.83;;;;;;;30.57;35.82;94500.13;4991268;28;20225;-69
2023/06/10 10:02:15;;;;;;;3.22;3.03;;;;;;;30.15;37.04;94501.69;4990856;28;20251;-70
2023/06/10 10:04:42;;;;;;;3.42;2.72;;;;;;;29.75;37.64;94501.16;4990876;28;20307;-69
2023/06/10 10:07:09;;;;;;;3.00;2.80;;;;;;;29.49;39.10;94494.75;4990442;28;20344;-70
2023/06/10 10:09:38;;;;;;;3.50;3.17;;;;;;;29.53;40.43;94496.81;4989196;28;20205;-72
2023/06/10 10:12:10;;;;;;;5.78;3.05;;;;;;;29.78;39.46;94489.50;4939806;28;20636;-71
2023/06/10 10:14:38;;;;;;;3.20;3.00;;;;;;;29.70;38.68;94495.63;4955101;28;20263;-72
2023/06/10 10:17:08;;;;;;;2.95;2.63;;;;;;;29.36;38.36;94490.94;4948091;28;22480;-71
2023/06/10 10:19:41;;;;;;;6.93;6.38;;;;;;;29.04;39.80;94496.47;4946762;28;20213;-76
2023/06/10 10:22:11;;;;;;;15.32;10.93;;;;;;;28.92;39.38;94488.25;4950172;28;20264;-74
2023/06/10 10:24:47;;;;;;;7.93;7.22;;;;;;;28.86;40.29;94485.53;4951665;28;20307;-71
2023/06/10 10:27:19;;;;;;;4.28;3.88;;;;;;;28.88;40.61;94489.59;4951310;28;20241;-72
2023/06/10 10:29:48;;;;;;;2.83;2.35;;;;;;;28.87;37.89;94482.75;4952202;28;20279;-69
2023/06/10 10:32:17;;;;;;;2.78;2.50;;;;;;;28.64;37.36;94489.78;4953884;28;20263;-68
2023/06/10 10:34:51;;;;;;;2.38;2.28;;;;;;;28.18;36.76;94486.31;4952791;28;20212;-74
2023/06/10 10:37:18;;;;;;;2.50;2.40;;;;;;;28.03;38.28;94483.59;4952053;28;20204;-67
2023/06/10 10:39:47;;;;;;;2.03;1.80;;;;;;;28.15;38.33;94484.84;4949750;28;20213;-67
2023/06/10 10:42:14;;;;;;;7.70;5.85;;;;;;;28.14;38.43;94482.41;4949943;28;20229;-73
2023/06/10 10:44:41;;;;;;;2.50;1.92;;;;;;;28.19;37.47;94480.91;4951864;28;20571;-78
2023/06/10 10:47:09;;;;;;;2.72;2.55;;;;;;;28.24;37.47;94473.38;4949298;28;20213;-73
2023/06/10 10:49:38;;;;;;;3.67;2.15;;;;;;;28.09;36.17;94462.00;4948644;28;20208;-72
2023/06/10 10:52:06;;;;;;;2.42;2.22;;;;;;;28.16;37.73;94470.78;4950244;28;20606;-72
2023/06/10 10:54:34;;;;;;;2.08;1.98;;;;;;;28.49;36.86;94470.59;4943734;28;20213;-79
2023/06/10 10:57:13;;;;;;;2.78;2.30;;;;;;;28.58;37.54;94464.31;4950964;28;20359;-81
2023/06/10 10:59:52;;;;;;;4.43;4.13;;;;;;;28.90;37.51;94463.28;4947389;28;20294;-70
2023/06/10 11:02:19;;;;;;;17.30;15.32;;;;;;;29.24;38.36;94460.13;4947172;28;20299;-80
2023/06/10 11:04:47;;;;;;;18.58;15.82;;;;;;;29.61;37.50;94451.41;4944423;28;20283;-75
2023/06/10 11:07:15;;;;;;;7.43;6.90;;;;;;;29.99;37.61;94452.91;4947917;28;20199;-73
2023/06/10 11:09:59;;;;;;;13.13;9.02;;;;;;;30.13;36.93;94445.22;4945261;28;20921;-72
2023/06/10 11:12:42;;;;;;;6.32;4.97;;;;;;;30.03;36.09;94435.00;4947322;28;20197;-74
2023/06/10 11:15:09;;;;;;;5.30;3.53;;;;;;;29.82;36.17;94442.81;4945519;28;20293;-70
2023/06/10 11:17:36;;;;;;;14.68;12.10;;;;;;;29.52;37.82;94437.59;4948795;28;21778;-69
2023/06/10 11:20:02;;;;;;;7.05;6.22;;;;;;;29.29;37.89;94445.53;4950042;28;20295;-76
2023/06/10 11:22:29;;;;;;;33.10;24.77;;;;;;;29.04;38.85;94434.50;4956308;28;20367;-79
2023/06/10 11:24:58;;;;;;;9.85;8.88;;;;;;;29.01;39.32;94437.47;4946569;28;20398;-67
2023/06/10 11:27:26;;;;;;;3.70;3.10;;;;;;;28.65;40.34;94439.09;4950071;28;20760;-75
2023/06/10 11:29:57;;;;;;;3.40;3.20;;;;;;;28.18;42.22;94431.44;4946602;28;20290;-67
2023/06/10 11:32:26;;;;;;;3.78;3.50;;;;;;;27.33;43.75;94423.50;4948585;28;20236;-67
2023/06/10 11:34:53;;;;;;;5.97;3.75;;;;;;;26.40;45.17;94410.94;4949721;28;20208;-68